Time;durP1;ratioP1;P1;durP2;ratioP2;P2;SDS_P1;SDS_P2;PMS_P1;PMS_P2;Temp;Humidity;BMP_temperature;BMP_pressure;BME280_temperature;BME280_humidity;BME280_pressure;Samples;Min_cycle;Max_cycle;Signal;HPM_P1;HPM_P2
2021/04/23 07:12:36;;;;;;;5.43;1.87;;;14.40;92.80;;;;;;4974769;28;20219;-73
2021/04/23 07:15:03;;;;;;;5.03;1.73;;;14.00;92.30;;;;;;4973029;28;20238;-70
2021/04/23 07:17:29;;;;;;;1.90;1.17;;;13.00;92.70;;;;;;4973416;28;20231;-74
2021/04/23 07:19:56;;;;;;;6.87;1.87;;;13.10;93.10;;;;;;4974333;28;20257;-71
2021/04/23 07:22:23;;;;;;;3.60;1.43;;;13.20;92.80;;;;;;4975204;28;20206;-75
2021/04/23 07:24:49;;;;;;;5.47;1.60;;;12.90;92.60;;;;;;4975144;28;20318;-75
2021/04/23 07:27:15;;;;;;;6.57;1.67;;;12.90;93.20;;;;;;4975030;28;20622;-75
2021/04/23 07:29:42;;;;;;;5.97;1.53;;;13.30;92.60;;;;;;4975680;28;20570;-70
2021/04/23 07:32:08;;;;;;;2.60;1.37;;;13.40;91.70;;;;;;4974928;28;20660;-74
2021/04/23 07:34:35;;;;;;;2.63;1.40;;;13.50;91.90;;;;;;4974644;28;20215;-73
2021/04/23 07:37:02;;;;;;;2.63;1.47;;;13.60;91.20;;;;;;4974478;28;20310;-75
2021/04/23 07:39:28;;;;;;;2.70;1.20;;;13.30;91.30;;;;;;4975264;28;20210;-69
2021/04/23 07:41:55;;;;;;;2.87;1.60;;;13.40;91.40;;;;;;4974968;28;20235;-73
2021/04/23 07:44:22;;;;;;;3.53;1.40;;;13.60;90.90;;;;;;4974431;28;20203;-69
2021/04/23 07:46:49;;;;;;;4.30;1.50;;;13.80;90.20;;;;;;4974193;28;20665;-71
2021/04/23 07:49:16;;;;;;;7.27;1.50;;;13.90;90.40;;;;;;4974961;28;20203;-72
2021/04/23 07:51:43;;;;;;;1.60;1.20;;;13.80;90.70;;;;;;4974518;28;20207;-71
2021/04/23 07:54:10;;;;;;;2.50;1.33;;;13.80;91.40;;;;;;4974439;28;20211;-71
2021/04/23 07:56:37;;;;;;;2.97;1.43;;;13.90;90.70;;;;;;4974571;28;20291;-72
2021/04/23 07:59:04;;;;;;;2.83;1.33;;;14.10;90.60;;;;;;4974692;28;20238;-72
2021/04/23 08:01:31;;;;;;;6.93;1.37;;;14.40;90.40;;;;;;4974375;28;20614;-73
2021/04/23 08:03:58;;;;;;;3.30;1.20;;;14.50;90.00;;;;;;4973795;28;20207;-70
2021/04/23 08:06:25;;;;;;;5.57;1.47;;;14.40;90.30;;;;;;4973899;28;20717;-73
2021/04/23 08:08:51;;;;;;;3.87;1.50;;;13.90;89.00;;;;;;4974253;28;20231;-73
2021/04/23 08:11:17;;;;;;;4.27;1.43;;;13.60;90.20;;;;;;4974146;28;20216;-70
2021/04/23 08:13:44;;;;;;;2.83;1.40;;;14.20;90.20;;;;;;4973978;28;20208;-69
2021/04/23 08:16:10;;;;;;;2.70;1.43;;;14.00;89.50;;;;;;4974285;28;20208;-70
2021/04/23 08:18:38;;;;;;;2.73;1.30;;;13.90;90.10;;;;;;4974095;28;20227;-69
2021/04/23 08:21:06;;;;;;;3.80;1.00;;;14.20;89.20;;;;;;4974369;28;20217;-72
2021/04/23 08:23:33;;;;;;;3.50;1.37;;;13.50;87.80;;;;;;4974042;28;20745;-74
2021/04/23 08:26:02;;;;;;;2.73;0.93;;;13.10;89.00;;;;;;4974775;28;20250;-71
2021/04/23 08:28:29;;;;;;;5.53;1.40;;;13.30;88.90;;;;;;4975339;28;20255;-75
2021/04/23 08:30:55;;;;;;;1.93;0.97;;;13.40;89.60;;;;;;4975344;28;20219;-75
2021/04/23 08:33:21;;;;;;;5.90;1.07;;;13.40;89.40;;;;;;4974915;28;20211;-74
2021/04/23 08:35:48;;;;;;;5.03;1.20;;;13.90;88.40;;;;;;4974923;28;20273;-69
2021/04/23 08:38:15;;;;;;;3.40;1.07;;;14.20;89.10;;;;;;4975221;28;20294;-73
2021/04/23 08:40:41;;;;;;;3.93;1.37;;;13.50;87.10;;;;;;4974699;28;20598;-72
2021/04/23 08:43:07;;;;;;;3.37;1.30;;;13.10;88.90;;;;;;4974999;28;20215;-72
2021/04/23 08:45:33;;;;;;;1.70;1.00;;;12.70;89.10;;;;;;4974777;28;20238;-70
2021/04/23 08:48:00;;;;;;;3.43;1.30;;;13.10;88.40;;;;;;4974738;28;20231;-73
2021/04/23 08:50:27;;;;;;;3.30;1.23;;;13.70;87.60;;;;;;4974783;28;20207;-77
2021/04/23 08:52:54;;;;;;;3.90;1.60;;;13.20;87.70;;;;;;4975110;28;20207;-73
2021/04/23 08:55:23;;;;;;;3.90;1.40;;;12.90;89.40;;;;;;4975039;28;20215;-71
2021/04/23 08:57:49;;;;;;;3.57;1.57;;;12.60;89.60;;;;;;4974345;28;20227;-71
2021/04/23 09:00:17;;;;;;;2.30;1.20;;;12.90;90.10;;;;;;4974932;28;20569;-70
2021/04/23 09:02:44;;;;;;;4.43;1.40;;;13.60;88.10;;;;;;4975035;28;20203;-74
2021/04/23 09:05:12;;;;;;;6.50;1.40;;;13.80;87.10;;;;;;4975015;28;20238;-75
2021/04/23 09:07:38;;;;;;;3.50;1.40;;;13.50;87.70;;;;;;4974455;28;20258;-70
2021/04/23 09:10:08;;;;;;;2.73;1.30;;;13.10;88.20;;;;;;4974586;28;20285;-70
2021/04/23 09:12:35;;;;;;;5.77;1.83;;;13.40;89.50;;;;;;4974176;28;20254;-71
2021/04/23 09:15:02;;;;;;;4.97;1.53;;;14.00;88.30;;;;;;4974630;28;20215;-69
2021/04/23 09:17:29;;;;;;;2.30;1.13;;;13.80;87.40;;;;;;4974352;28;20231;-68
2021/04/23 09:19:57;;;;;;;3.77;1.20;;;14.10;86.00;;;;;;4974590;28;20486;-71
2021/04/23 09:22:26;;;;;;;3.63;1.37;;;14.00;86.30;;;;;;4974239;28;20207;-69
2021/04/23 09:24:59;;;;;;;4.20;1.00;;;13.70;87.40;;;;;;4973893;28;20728;-69
2021/04/23 09:27:27;;;;;;;3.13;1.40;;;13.40;85.80;;;;;;4973967;28;20289;-70
2021/04/23 09:29:57;;;;;;;7.33;1.20;;;12.80;88.70;;;;;;4974483;28;20230;-70
2021/04/23 09:32:25;;;;;;;2.40;1.10;;;12.60;90.30;;;;;;4974298;28;20294;-67
2021/04/23 09:34:54;;;;;;;4.43;1.20;;;13.30;89.20;;;;;;4974223;28;20301;-71
2021/04/23 09:37:23;;;;;;;5.47;1.30;;;13.70;88.00;;;;;;4974055;28;20690;-71
2021/04/23 09:39:51;;;;;;;3.00;1.27;;;13.20;89.10;;;;;;4974052;28;20218;-73
2021/04/23 09:42:18;;;;;;;3.23;1.20;;;13.00;90.30;;;;;;4973889;28;20211;-70
2021/04/23 09:44:46;;;;;;;1.73;1.10;;;13.40;89.50;;;;;;4974164;28;20238;-71
2021/04/23 09:47:17;;;;;;;2.10;1.30;;;13.80;87.30;;;;;;4974031;28;20653;-71
2021/04/23 09:49:46;;;;;;;4.77;1.37;;;13.00;86.40;;;;;;4973885;28;20561;-72
2021/04/23 09:52:14;;;;;;;3.93;1.13;;;12.90;87.50;;;;;;4974012;28;20207;-70
2021/04/23 09:54:46;;;;;;;1.43;1.00;;;12.50;88.00;;;;;;4973986;28;20221;-69
2021/04/23 09:57:14;;;;;;;3.67;1.17;;;12.40;88.70;;;;;;4973953;28;20228;-72
2021/04/23 09:59:49;;;;;;;3.53;1.17;;;12.30;88.50;;;;;;4974621;28;20566;-72
2021/04/23 10:02:17;;;;;;;3.73;1.00;;;12.50;87.60;;;;;;4974825;28;20206;-72
2021/04/23 10:04:43;;;;;;;3.93;1.60;;;12.50;87.90;;;;;;4974169;28;20227;-71
2021/04/23 10:07:12;;;;;;;4.63;1.03;;;12.10;88.90;;;;;;4974740;28;20258;-69
2021/04/23 10:09:57;;;;;;;2.43;1.20;;;12.00;89.70;;;;;;4974715;28;20207;-73
2021/04/23 10:12:35;;;;;;;3.53;1.23;;;11.80;87.80;;;;;;4974163;28;20217;-72
2021/04/23 10:15:09;;;;;;;4.30;0.97;;;12.10;88.90;;;;;;4974000;28;20214;-74
2021/04/23 10:17:37;;;;;;;2.40;1.10;;;12.20;89.50;;;;;;4973744;28;20230;-72
2021/04/23 10:20:06;;;;;;;5.70;1.60;;;12.30;89.20;;;;;;4974011;28;20207;-70
2021/04/23 10:22:32;;;;;;;2.47;1.10;;;12.30;88.30;;;;;;4974079;28;20207;-70
2021/04/23 10:24:59;;;;;;;5.73;1.17;;;12.30;89.70;;;;;;4973704;28;20690;-69
2021/04/23 10:27:25;;;;;;;5.20;1.50;;;12.50;91.00;;;;;;4973798;28;20238;-72
2021/04/23 10:29:53;;;;;;;3.33;1.40;;;12.50;89.50;;;;;;4973588;28;20255;-72
2021/04/23 10:32:21;;;;;;;6.17;1.47;;;12.60;89.20;;;;;;4973847;28;20214;-73
2021/04/23 10:34:48;;;;;;;5.83;1.33;;;12.70;88.60;;;;;;4973640;28;20551;-74
2021/04/23 10:37:16;;;;;;;3.67;1.30;;;13.00;86.10;;;;;;4973833;28;20234;-72
2021/04/23 10:39:44;;;;;;;3.07;1.50;;;13.10;87.10;;;;;;4973608;28;20290;-72
2021/04/23 10:42:51;;;;;;;5.77;1.57;;;13.20;89.00;;;;;;4973572;28;20210;-71
2021/04/23 10:45:38;;;;;;;3.47;0.90;;;12.90;88.60;;;;;;4973730;28;20358;-72
2021/04/23 10:48:25;;;;;;;2.70;1.20;;;12.70;84.50;;;;;;4973514;28;20237;-71
2021/04/23 10:50:55;;;;;;;4.40;1.17;;;12.80;86.60;;;;;;4973733;28;20215;-73
2021/04/23 10:53:32;;;;;;;4.13;1.20;;;13.00;85.20;;;;;;4975211;28;20674;-73
2021/04/23 10:56:00;;;;;;;4.10;1.03;;;13.40;86.90;;;;;;4976946;28;20215;-70
2021/04/23 10:58:39;;;;;;;4.67;1.33;;;13.40;85.60;;;;;;4977007;28;20236;-73
2021/04/23 11:01:25;;;;;;;2.40;1.30;;;13.30;84.90;;;;;;4976778;28;20207;-73
2021/04/23 11:04:13;;;;;;;5.63;1.33;;;13.50;87.10;;;;;;4976671;28;20632;-73
2021/04/23 11:06:43;;;;;;;4.80;1.10;;;13.80;84.20;;;;;;4972036;28;20338;-73
2021/04/23 11:09:15;;;;;;;3.73;1.23;;;13.60;84.90;;;;;;4976774;28;20207;-73
2021/04/23 11:11:42;;;;;;;4.17;1.47;;;13.50;82.70;;;;;;4976465;28;20241;-73
2021/04/23 11:14:28;;;;;;;1.63;1.10;;;13.60;82.10;;;;;;4976969;28;20211;-71
2021/04/23 11:17:15;;;;;;;1.87;1.20;;;13.50;81.50;;;;;;4976725;28;20219;-74
2021/04/23 11:19:41;;;;;;;3.70;1.40;;;13.30;80.10;;;;;;4976530;28;20203;-73
2021/04/23 11:22:15;;;;;;;4.67;1.53;;;13.30;84.30;;;;;;4976725;28;20211;-76
2021/04/23 11:25:05;;;;;;;3.37;0.90;;;13.40;82.30;;;;;;4976266;28;20674;-69
2021/04/23 11:27:32;;;;;;;4.57;1.20;;;13.50;82.00;;;;;;4976071;28;20238;-73
2021/04/23 11:30:06;;;;;;;3.23;1.33;;;13.50;82.30;;;;;;4976308;28;20586;-71
2021/04/23 11:32:34;;;;;;;3.40;1.03;;;13.30;81.40;;;;;;4976356;28;20218;-71
2021/04/23 11:35:01;;;;;;;2.80;1.17;;;13.40;79.90;;;;;;4976705;28;20207;-71
2021/04/23 11:37:31;;;;;;;3.83;1.33;;;13.50;79.90;;;;;;4976754;28;20228;-71
2021/04/23 11:39:58;;;;;;;1.40;0.93;;;13.70;80.50;;;;;;4976405;28;20211;-70
2021/04/23 11:42:26;;;;;;;4.03;1.50;;;13.70;79.30;;;;;;4976249;28;20215;-72
2021/04/23 11:44:55;;;;;;;5.67;1.60;;;13.50;80.30;;;;;;4975910;28;20231;-71
2021/04/23 11:47:32;;;;;;;3.03;1.03;;;13.50;81.80;;;;;;4976077;28;20227;-71
2021/04/23 11:50:11;;;;;;;3.33;1.00;;;13.70;81.20;;;;;;4975882;28;20207;-73
2021/04/23 11:52:40;;;;;;;3.33;1.20;;;13.90;83.00;;;;;;4975794;28;20207;-71
2021/04/23 11:55:09;;;;;;;4.33;1.20;;;14.10;81.30;;;;;;4975791;28;20219;-70
2021/04/23 11:57:35;;;;;;;2.67;1.33;;;14.00;81.30;;;;;;4975564;28;20231;-72
2021/04/23 12:00:06;;;;;;;5.13;1.40;;;13.90;81.80;;;;;;4975818;28;20262;-73
2021/04/23 12:02:37;;;;;;;2.13;1.00;;;14.00;82.60;;;;;;4975611;28;20346;-73
2021/04/23 12:05:04;;;;;;;2.90;1.30;;;14.10;81.20;;;;;;4975464;28;20241;-73
2021/04/23 12:07:42;;;;;;;3.83;1.30;;;14.20;80.00;;;;;;4975705;28;20230;-73
2021/04/23 12:10:09;;;;;;;6.13;1.20;;;14.20;81.90;;;;;;4975941;28;20262;-73
2021/04/23 12:12:36;;;;;;;4.33;1.67;;;14.40;81.40;;;;;;4975424;28;20216;-73
2021/04/23 12:15:04;;;;;;;5.60;1.50;;;14.50;80.90;;;;;;4975948;28;20215;-73
2021/04/23 12:17:39;;;;;;;2.37;1.60;;;14.60;81.30;;;;;;4975589;28;20223;-73
2021/04/23 12:20:13;;;;;;;3.47;1.40;;;14.50;82.50;;;;;;4975496;28;20219;-74
2021/04/23 12:22:40;;;;;;;4.53;1.50;;;14.50;82.10;;;;;;4975452;28;20289;-73
2021/04/23 12:25:18;;;;;;;3.20;1.33;;;14.60;82.00;;;;;;4975529;28;20694;-72
2021/04/23 12:27:44;;;;;;;4.53;1.50;;;14.50;80.40;;;;;;4975227;28;20231;-72
2021/04/23 12:30:11;;;;;;;2.87;1.10;;;14.70;82.20;;;;;;4975286;28;20218;-73
2021/04/23 12:32:53;;;;;;;4.60;1.77;;;14.80;80.80;;;;;;4975306;28;20214;-72
2021/04/23 12:35:34;;;;;;;9.43;1.90;;;14.70;80.90;;;;;;4975544;28;20218;-73
2021/04/23 12:38:01;;;;;;;6.20;2.23;;;14.60;80.60;;;;;;4975174;28;20227;-72
2021/04/23 12:40:36;;;;;;;3.50;1.70;;;14.60;81.00;;;;;;4975297;28;20212;-73
2021/04/23 12:43:16;;;;;;;1.90;1.23;;;14.60;81.40;;;;;;4975117;28;20234;-73
2021/04/23 12:45:44;;;;;;;4.37;1.50;;;14.50;82.40;;;;;;4975280;28;20235;-73
2021/04/23 12:48:11;;;;;;;5.60;1.50;;;14.50;82.00;;;;;;4974906;28;20234;-74
2021/04/23 12:50:38;;;;;;;4.50;1.67;;;14.40;81.20;;;;;;4975297;28;20294;-73
2021/04/23 12:53:06;;;;;;;4.50;1.73;;;14.30;82.20;;;;;;4974910;28;20559;-71
2021/04/23 12:55:32;;;;;;;2.43;1.37;;;14.40;81.70;;;;;;4975230;28;20550;-72
2021/04/23 12:57:58;;;;;;;5.60;1.70;;;14.70;81.30;;;;;;4974485;28;20227;-72
2021/04/23 13:00:25;;;;;;;3.57;1.50;;;14.70;81.00;;;;;;4974989;28;20203;-73
2021/04/23 13:02:56;;;;;;;3.37;1.60;;;14.80;81.60;;;;;;4974923;28;20233;-74
2021/04/23 13:05:23;;;;;;;4.67;2.03;;;15.00;80.70;;;;;;4974891;28;20266;-74
2021/04/23 13:07:52;;;;;;;4.13;1.80;;;15.10;80.30;;;;;;4974681;28;20227;-73
2021/04/23 13:10:22;;;;;;;6.20;1.83;;;15.20;80.50;;;;;;4974997;28;20298;-72
2021/04/23 13:12:58;;;;;;;2.10;1.50;;;15.30;81.50;;;;;;4974017;28;20215;-71
2021/04/23 13:15:27;;;;;;;3.77;1.40;;;15.30;82.00;;;;;;4973831;28;20214;-72
2021/04/23 13:17:58;;;;;;;4.90;1.90;;;15.40;81.50;;;;;;4974360;28;20227;-71
2021/04/23 13:20:27;;;;;;;2.70;1.20;;;15.20;80.10;;;;;;4974286;28;20231;-71
2021/04/23 13:22:55;;;;;;;5.37;2.03;;;14.90;80.80;;;;;;4974305;28;20221;-72
2021/04/23 13:25:29;;;;;;;3.93;2.17;;;14.60;82.80;;;;;;4974558;28;20697;-72
2021/04/23 13:28:10;;;;;;;5.50;1.83;;;14.70;84.30;;;;;;4974163;28;20230;-72
2021/04/23 13:30:39;;;;;;;6.03;2.00;;;14.80;83.10;;;;;;4974367;28;20295;-72
2021/04/23 13:33:08;;;;;;;7.87;2.37;;;15.00;84.00;;;;;;4974164;28;20203;-71
2021/04/23 13:35:37;;;;;;;4.73;2.20;;;15.10;81.60;;;;;;4974517;28;20294;-70
2021/04/23 13:38:28;;;;;;;4.60;1.90;;;15.00;82.50;;;;;;4974212;28;20231;-71
2021/04/23 13:41:09;;;;;;;3.47;1.90;;;15.00;83.90;;;;;;4974293;28;20306;-72
2021/04/23 13:43:36;;;;;;;4.60;1.70;;;14.90;82.80;;;;;;4974169;28;20576;-70
2021/04/23 13:46:06;;;;;;;6.27;1.93;;;15.00;82.60;;;;;;4974336;28;20235;-71
2021/04/23 13:48:34;;;;;;;6.33;2.30;;;15.00;82.80;;;;;;4970694;28;20600;-73
2021/04/23 13:51:03;;;;;;;8.07;2.00;;;15.20;82.90;;;;;;4973242;28;20211;-71
2021/04/23 13:53:31;;;;;;;4.87;2.40;;;15.50;82.40;;;;;;4974068;28;20218;-71
2021/04/23 13:56:10;;;;;;;5.47;2.17;;;15.40;82.30;;;;;;4974265;28;20207;-72
2021/04/23 13:58:55;;;;;;;6.87;2.13;;;15.50;81.60;;;;;;4973593;28;20630;-71
2021/04/23 14:01:26;;;;;;;3.77;2.40;;;15.60;82.10;;;;;;4974217;28;20209;-72
2021/04/23 14:03:53;;;;;;;3.60;2.00;;;15.50;81.20;;;;;;4974049;28;20218;-73
2021/04/23 14:06:19;;;;;;;4.83;2.53;;;15.30;82.90;;;;;;4974066;28;20239;-72
2021/04/23 14:08:45;;;;;;;3.63;2.43;;;15.30;83.20;;;;;;4973813;28;20230;-71
2021/04/23 14:11:13;;;;;;;2.60;2.00;;;15.30;82.60;;;;;;4973613;28;20568;-72
2021/04/23 14:13:39;;;;;;;2.70;1.77;;;15.30;82.00;;;;;;4973893;28;20211;-70
2021/04/23 14:16:06;;;;;;;3.60;1.90;;;15.30;81.80;;;;;;4973867;28;20207;-72
2021/04/23 14:18:32;;;;;;;5.67;2.30;;;15.50;81.70;;;;;;4973714;28;20238;-72
2021/04/23 14:20:58;;;;;;;3.57;1.73;;;15.70;81.40;;;;;;4973575;28;20566;-72
2021/04/23 14:23:25;;;;;;;3.13;2.00;;;15.70;80.80;;;;;;4973758;28;20227;-72
2021/04/23 14:25:51;;;;;;;4.20;2.10;;;15.80;82.70;;;;;;4974063;28;20235;-72
2021/04/23 14:28:18;;;;;;;6.13;2.53;;;15.90;82.20;;;;;;4976714;28;20227;-72
2021/04/23 14:30:44;;;;;;;4.60;2.10;;;15.90;83.30;;;;;;4977572;28;20211;-71
2021/04/23 14:33:10;;;;;;;3.50;2.07;;;15.80;81.40;;;;;;4977378;28;20253;-70
2021/04/23 14:35:37;;;;;;;5.00;2.37;;;15.90;81.00;;;;;;4977070;28;20207;-72
2021/04/23 14:38:03;;;;;;;4.60;2.20;;;15.90;81.40;;;;;;4977163;28;20227;-72
2021/04/23 14:40:29;;;;;;;3.20;1.90;;;15.80;82.90;;;;;;4977247;28;20614;-73
2021/04/23 14:42:55;;;;;;;5.77;2.67;;;15.80;81.70;;;;;;4977317;28;20207;-73
2021/04/23 14:45:23;;;;;;;3.30;2.00;;;15.80;81.30;;;;;;4977358;28;20235;-72
2021/04/23 14:47:49;;;;;;;8.43;2.50;;;15.70;82.60;;;;;;4977319;28;20238;-72
2021/04/23 14:50:15;;;;;;;10.40;3.10;;;15.70;82.10;;;;;;4977281;28;20208;-73
2021/04/23 14:52:41;;;;;;;4.43;2.57;;;15.90;82.10;;;;;;4977307;28;20215;-72
2021/04/23 14:55:08;;;;;;;4.50;2.47;;;15.80;82.40;;;;;;4976917;28;20697;-73
2021/04/23 14:57:35;;;;;;;5.03;2.30;;;15.90;82.10;;;;;;4973920;28;20242;-70
2021/04/23 15:00:01;;;;;;;5.03;1.93;;;15.80;81.40;;;;;;4978899;28;20203;-71
2021/04/23 15:02:28;;;;;;;3.27;2.10;;;15.80;81.10;;;;;;4977225;28;20310;-71
2021/04/23 15:04:54;;;;;;;4.60;2.30;;;15.90;81.30;;;;;;4976698;28;20207;-72
2021/04/23 15:07:21;;;;;;;4.53;2.10;;;16.00;79.90;;;;;;4976683;28;20238;-70
2021/04/23 15:09:47;;;;;;;5.50;2.27;;;16.00;79.80;;;;;;4976702;28;20666;-72
2021/04/23 15:12:13;;;;;;;4.43;2.00;;;15.90;80.70;;;;;;4976770;28;20246;-72
2021/04/23 15:14:40;;;;;;;8.53;2.50;;;15.80;80.10;;;;;;4976555;28;20207;-71
2021/04/23 15:17:06;;;;;;;3.30;1.87;;;15.80;79.80;;;;;;4976622;28;20297;-72
2021/04/23 15:19:33;;;;;;;3.03;2.00;;;16.00;80.30;;;;;;4976319;28;20211;-72
2021/04/23 15:22:00;;;;;;;5.67;2.20;;;16.10;80.30;;;;;;4976707;28;20212;-71
2021/04/23 15:24:26;;;;;;;3.63;2.10;;;16.00;80.20;;;;;;4976366;28;20725;-70
2021/04/23 15:26:52;;;;;;;8.00;1.97;;;15.90;81.40;;;;;;4976297;28;20235;-72
2021/04/23 15:29:18;;;;;;;5.43;2.47;;;15.70;81.30;;;;;;4975929;28;20222;-72
2021/04/23 15:31:45;;;;;;;4.60;2.20;;;15.60;82.80;;;;;;4976460;28;20207;-71
2021/04/23 15:34:11;;;;;;;3.60;2.00;;;15.50;81.70;;;;;;4976287;28;20239;-72
2021/04/23 15:36:38;;;;;;;6.30;1.93;;;15.50;81.90;;;;;;4976305;28;20211;-72
2021/04/23 15:39:05;;;;;;;9.43;2.33;;;15.50;81.70;;;;;;4975251;28;20211;-72
2021/04/23 15:41:34;;;;;;;4.37;1.90;;;15.60;81.80;;;;;;4976064;28;20219;-73
2021/04/23 15:44:00;;;;;;;5.53;2.20;;;15.60;81.70;;;;;;4976075;28;20662;-72
2021/04/23 15:46:26;;;;;;;3.90;1.70;;;15.70;81.10;;;;;;4975903;28;20235;-73
2021/04/23 15:48:53;;;;;;;4.73;1.80;;;15.80;81.10;;;;;;4975632;28;20234;-72
2021/04/23 15:51:19;;;;;;;8.70;2.03;;;15.80;80.90;;;;;;4976060;28;20214;-76
2021/04/23 15:53:46;;;;;;;3.90;1.93;;;15.60;82.10;;;;;;4976029;28;20206;-77
2021/04/23 15:56:13;;;;;;;4.57;1.60;;;15.60;82.90;;;;;;4975131;28;20678;-73
2021/04/23 15:58:39;;;;;;;7.80;2.53;;;15.60;83.00;;;;;;4975863;28;20358;-73
2021/04/23 16:01:06;;;;;;;4.27;1.67;;;15.60;83.00;;;;;;4975579;28;20213;-78
2021/04/23 16:03:32;;;;;;;6.00;2.03;;;15.50;81.80;;;;;;4975907;28;20208;-77
2021/04/23 16:05:58;;;;;;;4.43;1.87;;;15.60;81.70;;;;;;4975862;28;20235;-72
2021/04/23 16:08:25;;;;;;;5.93;1.90;;;15.90;80.60;;;;;;4975909;28;20753;-73
2021/04/23 16:10:52;;;;;;;2.83;1.67;;;15.80;80.30;;;;;;4971820;28;20270;-76
2021/04/23 16:13:19;;;;;;;5.97;2.97;;;15.70;79.60;;;;;;4974404;28;20211;-76
2021/04/23 16:15:46;;;;;;;5.33;1.50;;;15.80;79.50;;;;;;4974177;28;20266;-76
2021/04/23 16:18:12;;;;;;;5.70;2.00;;;15.90;79.70;;;;;;4975015;28;20229;-78
2021/04/23 16:20:38;;;;;;;4.80;1.73;;;15.80;79.20;;;;;;4974735;28;20211;-72
2021/04/23 16:23:05;;;;;;;4.87;1.53;;;15.60;79.60;;;;;;4972906;28;20242;-74
2021/04/23 16:25:33;;;;;;;2.53;1.67;;;15.50;80.20;;;;;;4973447;28;20254;-73
2021/04/23 16:28:02;;;;;;;4.33;2.20;;;15.60;79.90;;;;;;4974214;28;20224;-73
2021/04/23 16:30:29;;;;;;;4.20;1.80;;;15.70;79.50;;;;;;4972547;28;20212;-77
2021/04/23 16:32:56;;;;;;;4.07;1.83;;;15.60;79.60;;;;;;4973466;28;20732;-77
2021/04/23 16:35:23;;;;;;;4.57;1.77;;;15.60;79.90;;;;;;4973992;28;20664;-73
2021/04/23 16:37:49;;;;;;;4.20;1.80;;;15.40;79.50;;;;;;4970436;28;20226;-78
2021/04/23 16:40:18;;;;;;;2.50;1.40;;;15.20;80.30;;;;;;4974175;28;20670;-76
2021/04/23 16:42:45;;;;;;;6.43;1.90;;;15.10;81.70;;;;;;4974941;28;20214;-77
2021/04/23 16:45:15;;;;;;;3.30;1.90;;;15.30;80.80;;;;;;4974075;28;20310;-76
2021/04/23 16:47:42;;;;;;;8.10;1.80;;;15.40;80.80;;;;;;4973897;28;20224;-73
2021/04/23 16:50:10;;;;;;;2.40;1.40;;;15.40;79.60;;;;;;4972609;28;20203;-75
2021/04/23 16:52:36;;;;;;;5.27;1.47;;;15.40;79.40;;;;;;4973463;28;20211;-79
2021/04/23 16:55:04;;;;;;;2.60;1.47;;;15.40;79.50;;;;;;4973326;28;20211;-82
2021/04/23 16:57:31;;;;;;;2.80;1.53;;;15.40;79.80;;;;;;4973940;28;20255;-74
2021/04/23 16:59:57;;;;;;;3.93;1.73;;;15.40;79.00;;;;;;4974943;28;20203;-73
2021/04/23 17:02:24;;;;;;;2.57;1.33;;;15.40;79.20;;;;;;4974761;28;20282;-74
2021/04/23 17:04:50;;;;;;;3.70;1.80;;;15.20;79.60;;;;;;4974582;28;20208;-74
2021/04/23 17:07:16;;;;;;;5.80;1.50;;;15.30;80.00;;;;;;4974159;28;20247;-75
2021/04/23 17:09:43;;;;;;;4.33;1.97;;;15.20;80.20;;;;;;4974606;28;20215;-75
2021/04/23 17:12:09;;;;;;;2.73;1.70;;;15.00;80.20;;;;;;4974199;28;20667;-75
2021/04/23 17:14:35;;;;;;;5.23;1.40;;;14.80;79.80;;;;;;4974691;28;20207;-75
2021/04/23 17:17:02;;;;;;;3.23;1.53;;;14.90;79.50;;;;;;4974430;28;20242;-75
2021/04/23 17:19:29;;;;;;;2.20;1.30;;;14.90;80.30;;;;;;4974525;28;20559;-75
2021/04/23 17:21:55;;;;;;;2.57;1.30;;;15.00;80.20;;;;;;4974652;28;20245;-76
2021/04/23 17:24:21;;;;;;;3.33;1.33;;;14.80;79.50;;;;;;4974633;28;20292;-75
2021/04/23 17:26:48;;;;;;;5.27;1.60;;;14.60;79.90;;;;;;4974245;28;20238;-75
2021/04/23 17:29:14;;;;;;;2.60;1.37;;;14.50;80.90;;;;;;4974245;28;20258;-75
2021/04/23 17:31:40;;;;;;;2.43;1.23;;;14.50;81.40;;;;;;4973875;28;20212;-75
2021/04/23 17:34:06;;;;;;;4.87;1.77;;;14.60;82.10;;;;;;4974076;28;20265;-76
2021/04/23 17:36:34;;;;;;;4.93;1.80;;;14.50;82.70;;;;;;4974097;28;20211;-74
2021/04/23 17:39:01;;;;;;;4.03;1.70;;;14.60;82.90;;;;;;4973750;28;20231;-75
2021/04/23 17:41:27;;;;;;;5.27;1.53;;;14.40;83.60;;;;;;4974322;28;20257;-74
2021/04/23 17:43:53;;;;;;;6.10;1.73;;;14.30;83.90;;;;;;4973963;28;20343;-75
2021/04/23 17:46:19;;;;;;;2.93;1.47;;;14.30;84.80;;;;;;4974068;28;20243;-75
2021/04/23 17:48:45;;;;;;;4.20;1.73;;;14.30;84.90;;;;;;4973813;28;20234;-75
2021/04/23 17:51:13;;;;;;;5.03;1.60;;;14.30;85.20;;;;;;4974084;28;20262;-74
2021/04/23 17:53:43;;;;;;;3.10;1.60;;;14.30;85.20;;;;;;4973428;28;20199;-74
2021/04/23 17:56:10;;;;;;;5.17;1.80;;;14.30;85.40;;;;;;4973871;28;20551;-74
2021/04/23 17:58:36;;;;;;;4.30;1.70;;;14.30;85.00;;;;;;4973992;28;20234;-74
2021/04/23 18:01:04;;;;;;;4.17;1.47;;;14.30;84.60;;;;;;4974058;28;20211;-75
2021/04/23 18:03:30;;;;;;;4.83;1.77;;;14.20;85.00;;;;;;4977978;28;20211;-75
2021/04/23 18:05:56;;;;;;;3.17;1.63;;;14.10;84.80;;;;;;4977907;28;20238;-75
2021/04/23 18:08:22;;;;;;;3.10;1.63;;;14.20;85.20;;;;;;4977931;28;20309;-74
2021/04/23 18:10:50;;;;;;;6.10;1.80;;;14.10;85.60;;;;;;4977758;28;20270;-74
2021/04/23 18:13:16;;;;;;;4.60;1.40;;;14.10;85.30;;;;;;4977566;28;20211;-74
2021/04/23 18:15:42;;;;;;;2.93;1.47;;;14.10;85.20;;;;;;4977555;28;20586;-73
2021/04/23 18:18:09;;;;;;;3.80;1.63;;;14.00;85.50;;;;;;4977791;28;20721;-73
2021/04/23 18:20:35;;;;;;;3.53;1.57;;;14.00;85.40;;;;;;4977716;28;20199;-74
2021/04/23 18:23:02;;;;;;;3.63;1.60;;;13.90;85.50;;;;;;4978097;28;20207;-76
2021/04/23 18:25:28;;;;;;;4.97;1.87;;;13.80;85.80;;;;;;4977884;28;20230;-74
2021/04/23 18:27:56;;;;;;;2.77;1.70;;;13.70;86.20;;;;;;4969230;28;20246;-73
2021/04/23 18:30:22;;;;;;;5.77;1.47;;;13.60;86.70;;;;;;4967833;28;20204;-74
2021/04/23 18:32:51;;;;;;;5.87;2.23;;;13.60;86.80;;;;;;4971757;28;20618;-75
2021/04/23 18:35:21;;;;;;;4.77;1.83;;;13.70;87.40;;;;;;4970660;28;20858;-75
2021/04/23 18:37:48;;;;;;;3.43;1.70;;;13.70;87.80;;;;;;4965645;28;20250;-75
2021/04/23 18:40:16;;;;;;;3.03;2.00;;;13.60;88.30;;;;;;4968734;28;20295;-75
2021/04/23 18:42:43;;;;;;;3.73;1.60;;;13.50;88.30;;;;;;4968596;28;20212;-75
2021/04/23 18:45:15;;;;;;;3.80;1.87;;;13.50;88.90;;;;;;4970092;28;20204;-75
2021/04/23 18:47:41;;;;;;;5.37;1.97;;;13.30;89.30;;;;;;4976321;28;20718;-75
2021/04/23 18:50:09;;;;;;;3.13;1.60;;;13.20;89.90;;;;;;4974282;28;20206;-76
2021/04/23 18:52:36;;;;;;;3.93;1.63;;;13.20;89.70;;;;;;4963997;28;20208;-75
2021/04/23 18:55:03;;;;;;;6.53;2.80;;;13.30;89.90;;;;;;4965621;28;20203;-75
2021/04/23 18:57:29;;;;;;;6.27;1.93;;;13.20;90.30;;;;;;4973541;28;20259;-76
2021/04/23 18:59:55;;;;;;;3.70;1.70;;;13.00;90.00;;;;;;4961318;28;20230;-76
2021/04/23 19:02:22;;;;;;;5.23;2.17;;;13.00;90.20;;;;;;4970695;28;20200;-76
2021/04/23 19:04:49;;;;;;;7.10;2.60;;;12.90;90.10;;;;;;4963230;28;20251;-75
2021/04/23 19:07:16;;;;;;;6.57;2.67;;;12.90;90.30;;;;;;4961678;28;20235;-76
2021/04/23 19:09:42;;;;;;;4.07;2.03;;;12.80;90.30;;;;;;4968156;28;20563;-76
2021/04/23 19:12:08;;;;;;;4.43;1.87;;;12.80;90.40;;;;;;4969474;28;20223;-77
2021/04/23 19:14:34;;;;;;;4.47;1.90;;;12.70;90.50;;;;;;4970955;28;20235;-77
2021/04/23 19:17:01;;;;;;;6.20;2.87;;;12.80;90.60;;;;;;4968710;28;20227;-75
2021/04/23 19:19:30;;;;;;;6.17;2.07;;;12.90;90.50;;;;;;4965425;28;20231;-75
2021/04/23 19:21:57;;;;;;;5.97;1.93;;;12.80;90.70;;;;;;4963852;28;20208;-76
2021/04/23 19:24:24;;;;;;;4.13;2.37;;;12.70;90.70;;;;;;4969354;28;20294;-76
2021/04/23 19:26:50;;;;;;;3.90;1.90;;;12.80;90.70;;;;;;4967378;28;20266;-75
2021/04/23 19:29:17;;;;;;;4.23;2.40;;;12.70;90.70;;;;;;4966988;28;20208;-75
2021/04/23 19:31:43;;;;;;;4.27;2.00;;;12.70;90.90;;;;;;4966932;28;20291;-76
2021/04/23 19:34:10;;;;;;;7.23;2.30;;;12.50;91.00;;;;;;4966888;28;20204;-76
2021/04/23 19:36:37;;;;;;;3.33;2.20;;;12.40;91.00;;;;;;4962510;28;20216;-75
2021/04/23 19:39:04;;;;;;;4.33;1.77;;;12.40;91.30;;;;;;4965980;28;20223;-76
2021/04/23 19:41:31;;;;;;;3.47;1.37;;;12.40;91.30;;;;;;4966410;28;20204;-76
2021/04/23 19:43:57;;;;;;;7.73;3.20;;;12.40;91.20;;;;;;4971113;28;20239;-75
2021/04/23 19:46:24;;;;;;;4.87;2.00;;;12.40;91.30;;;;;;4960169;28;20259;-76
2021/04/23 19:48:50;;;;;;;3.43;1.70;;;12.40;91.10;;;;;;4966821;28;20227;-76
2021/04/23 19:51:16;;;;;;;3.20;1.70;;;12.50;90.80;;;;;;4969547;28;20214;-75
2021/04/23 19:53:43;;;;;;;4.00;1.87;;;12.50;90.80;;;;;;4963735;28;20213;-76
2021/04/23 19:56:10;;;;;;;5.83;1.83;;;12.40;91.20;;;;;;4968301;28;20259;-75
2021/04/23 19:58:36;;;;;;;3.97;1.70;;;12.30;90.70;;;;;;4969065;28;20278;-79
2021/04/23 20:01:03;;;;;;;4.53;1.90;;;12.20;91.00;;;;;;4970029;28;20291;-74
2021/04/23 20:03:30;;;;;;;5.00;2.63;;;12.20;90.60;;;;;;4965958;28;20223;-75
2021/04/23 20:05:57;;;;;;;4.67;1.93;;;12.20;90.50;;;;;;4970860;28;20226;-74